createdAt,value
2022-09-07T00:01:29.220Z,20.95
2022-09-07T00:03:56.085Z,21.23
2022-09-07T00:06:22.937Z,21.42
2022-09-07T00:08:49.744Z,21.66
2022-09-07T00:11:16.610Z,21.66
2022-09-07T00:13:43.396Z,21.77
2022-09-07T00:16:10.330Z,21.78
2022-09-07T00:18:37.172Z,19.25
2022-09-07T00:21:04.036Z,18.61
2022-09-07T00:23:31.037Z,19.40
2022-09-07T00:25:57.881Z,20.59
2022-09-07T00:28:24.767Z,21.01
2022-09-07T00:30:51.600Z,21.16
2022-09-07T00:33:18.417Z,21.35
2022-09-07T00:35:46.292Z,21.54
2022-09-07T00:38:13.114Z,21.65
2022-09-07T00:40:39.939Z,21.77
2022-09-07T00:43:06.793Z,21.83
2022-09-07T00:45:33.657Z,20.21
2022-09-07T00:48:00.640Z,18.79
2022-09-07T00:50:27.475Z,18.84
2022-09-07T00:52:54.310Z,20.29
2022-09-07T00:55:21.579Z,20.92
2022-09-07T00:57:49.159Z,21.17
2022-09-07T01:00:16.057Z,21.38
2022-09-07T01:02:43.004Z,21.49
2022-09-07T01:05:09.888Z,21.61
2022-09-07T01:07:36.775Z,21.77
2022-09-07T01:10:03.901Z,20.99
2022-09-07T01:12:31.399Z,19.04
2022-09-07T01:14:58.241Z,18.45
2022-09-07T01:17:25.154Z,19.83
2022-09-07T01:19:51.960Z,20.68
2022-09-07T01:22:18.763Z,20.99
2022-09-07T01:24:45.569Z,21.25
2022-09-07T01:27:12.394Z,21.35
2022-09-07T01:29:39.234Z,21.51
2022-09-07T01:32:06.068Z,21.71
2022-09-07T01:34:33.318Z,21.79
2022-09-07T01:37:00.309Z,21.79
2022-09-07T01:39:27.188Z,20.14
2022-09-07T01:41:54.059Z,18.74
2022-09-07T01:44:20.885Z,18.85
2022-09-07T01:46:47.890Z,20.27
2022-09-07T01:49:14.788Z,20.90
2022-09-07T01:51:41.609Z,21.12
2022-09-07T01:54:08.409Z,21.29
2022-09-07T01:56:35.416Z,21.46
2022-09-07T01:59:02.231Z,21.61
2022-09-07T02:01:29.239Z,21.72
2022-09-07T02:03:56.090Z,21.78
2022-09-07T02:06:22.914Z,20.19
2022-09-07T02:08:49.716Z,18.92
2022-09-07T02:11:16.527Z,18.88
2022-09-07T02:13:43.355Z,20.20
2022-09-07T02:16:10.746Z,20.80
2022-09-07T02:18:37.570Z,21.15
2022-09-07T02:21:04.380Z,21.33
2022-09-07T02:23:31.193Z,21.43
2022-09-07T02:25:58.096Z,21.62
2022-09-07T02:28:24.978Z,21.66
2022-09-07T02:30:52.004Z,21.77
2022-09-07T02:33:18.840Z,21.32
2022-09-07T02:35:45.822Z,19.23
2022-09-07T02:38:12.657Z,18.48
2022-09-07T02:40:40.040Z,19.57
2022-09-07T02:43:06.861Z,20.60
2022-09-07T02:45:33.653Z,20.95
2022-09-07T02:48:00.775Z,21.17
2022-09-07T02:50:27.652Z,21.40
2022-09-07T02:52:54.549Z,21.55
2022-09-07T02:55:21.957Z,21.63
2022-09-07T02:57:48.788Z,21.76
2022-09-07T03:00:15.593Z,21.85
2022-09-07T03:02:42.509Z,20.92
2022-09-07T03:05:09.400Z,18.99
2022-09-07T03:07:38.200Z,18.56
2022-09-07T03:10:06.785Z,19.96
2022-09-07T03:12:33.600Z,20.74
2022-09-07T03:15:00.403Z,21.04
2022-09-07T03:17:27.340Z,21.28
2022-09-07T03:19:54.285Z,21.43
2022-09-07T03:22:21.088Z,21.57
2022-09-07T03:24:47.905Z,21.73
2022-09-07T03:27:14.726Z,21.78
2022-09-07T03:29:42.232Z,21.76
2022-09-07T03:32:09.097Z,19.42
2022-09-07T03:34:36.217Z,18.60
2022-09-07T03:37:03.288Z,19.39
2022-09-07T03:39:30.736Z,20.55
2022-09-07T03:41:57.586Z,20.92
2022-09-07T03:44:24.421Z,21.14
2022-09-07T03:46:51.229Z,21.34
2022-09-07T03:49:18.056Z,21.49
2022-09-07T03:51:44.862Z,21.66
2022-09-07T03:54:11.666Z,21.73
2022-09-07T03:56:38.515Z,21.80
2022-09-07T03:59:05.437Z,19.87
2022-09-07T04:01:32.277Z,18.44
2022-09-07T04:04:02.225Z,18.01
2022-09-07T04:06:29.470Z,19.47
2022-09-07T04:08:56.571Z,20.08
2022-09-07T04:11:23.426Z,20.68
2022-09-07T04:13:50.260Z,21.00
2022-09-07T04:16:17.119Z,21.19
2022-09-07T04:18:43.962Z,21.33
2022-09-07T04:21:10.775Z,21.46
2022-09-07T04:23:37.614Z,21.58
2022-09-07T04:26:04.433Z,21.61
2022-09-07T04:28:31.494Z,21.72
2022-09-07T04:30:58.710Z,21.80
2022-09-07T04:33:25.609Z,19.08
2022-09-07T04:35:52.411Z,18.47
2022-09-07T04:38:19.216Z,19.20
2022-09-07T04:40:46.044Z,20.39
2022-09-07T04:43:13.242Z,20.76
2022-09-07T04:45:40.258Z,21.09
2022-09-07T04:48:07.156Z,21.26
2022-09-07T04:50:33.973Z,21.42
2022-09-07T04:53:00.793Z,21.48
2022-09-07T04:55:27.619Z,21.63
2022-09-07T04:57:54.431Z,21.79
2022-09-07T05:00:21.281Z,21.85
2022-09-07T05:02:48.183Z,19.32
2022-09-07T05:05:15.061Z,18.65
2022-09-07T05:07:41.934Z,19.32
2022-09-07T05:10:08.762Z,20.44
2022-09-07T05:12:35.568Z,20.95
2022-09-07T05:15:02.397Z,21.14
2022-09-07T05:17:30.996Z,21.38
2022-09-07T05:19:57.829Z,21.42
2022-09-07T05:22:27.509Z,21.53
2022-09-07T05:24:54.355Z,21.70
2022-09-07T05:27:21.152Z,21.78
2022-09-07T05:30:04.462Z,21.67
2022-09-07T05:32:32.170Z,19.07
2022-09-07T05:34:58.999Z,18.74
2022-09-07T05:37:25.855Z,19.84
2022-09-07T05:39:56.998Z,20.74
2022-09-07T05:42:23.920Z,21.02
2022-09-07T05:44:50.729Z,21.24
2022-09-07T05:47:17.545Z,21.43
2022-09-07T05:49:44.358Z,21.58
2022-09-07T05:52:11.223Z,21.68
2022-09-07T05:54:38.122Z,21.85
2022-09-07T05:57:04.977Z,21.02
2022-09-07T05:59:31.804Z,18.97
2022-09-07T06:01:58.786Z,18.58
2022-09-07T06:04:25.811Z,19.98
2022-09-07T06:07:18.053Z,20.77
2022-09-07T06:12:26.280Z,21.23
2022-09-07T06:14:53.107Z,21.41
2022-09-07T06:17:19.958Z,21.60
2022-09-07T06:19:46.769Z,21.73
2022-09-07T06:22:13.606Z,21.71
2022-09-07T06:24:40.412Z,21.34
2022-09-07T06:27:07.212Z,19.11
2022-09-07T06:29:37.022Z,18.56
2022-09-07T06:34:51.324Z,20.71
2022-09-07T06:37:19.310Z,21.06
2022-09-07T06:39:53.844Z,21.21
2022-09-07T06:42:24.310Z,21.40
2022-09-07T06:44:51.123Z,21.58
2022-09-07T06:47:17.933Z,21.62
2022-09-07T06:49:44.744Z,21.77
2022-09-07T06:52:11.874Z,21.78
2022-09-07T06:57:27.019Z,18.48
2022-09-07T06:59:53.886Z,19.61
2022-09-07T07:02:20.694Z,20.56
2022-09-07T07:04:47.759Z,20.98
2022-09-07T07:07:14.659Z,21.18
2022-09-07T07:09:41.615Z,21.34
2022-09-07T07:12:08.473Z,21.48
2022-09-07T07:14:38.493Z,21.62
2022-09-07T07:17:06.765Z,21.72
2022-09-07T07:19:33.656Z,21.80
2022-09-07T07:24:47.309Z,18.58
2022-09-07T07:27:14.128Z,19.47
2022-09-07T07:29:40.938Z,20.61
2022-09-07T07:32:07.762Z,21.03
2022-09-07T07:34:34.595Z,21.25
2022-09-07T07:37:01.794Z,21.40
2022-09-07T07:42:15.444Z,21.61
2022-09-07T07:44:42.296Z,21.75
2022-09-07T07:47:09.057Z,21.16
2022-09-07T07:49:35.970Z,18.82
2022-09-07T07:54:49.576Z,20.07
2022-09-07T07:57:19.392Z,20.76
2022-09-07T07:59:46.208Z,20.99
2022-09-07T08:02:13.404Z,21.20
2022-09-07T08:04:40.274Z,21.40
2022-09-07T08:07:10.722Z,21.52
2022-09-07T08:09:37.985Z,21.73
2022-09-07T08:12:04.791Z,21.69
2022-09-07T08:14:31.596Z,19.21
2022-09-07T08:16:58.425Z,18.51
2022-09-07T08:19:25.488Z,19.36
2022-09-07T08:21:52.350Z,20.55
2022-09-07T08:24:19.296Z,20.96
2022-09-07T08:26:46.097Z,21.23
2022-09-07T08:29:13.128Z,21.31
2022-09-07T08:31:39.974Z,21.50
2022-09-07T08:34:07.621Z,21.62
2022-09-07T08:36:34.369Z,21.65
2022-09-07T08:39:01.189Z,21.77
2022-09-07T08:41:27.974Z,20.33
2022-09-07T08:43:54.800Z,19.06
2022-09-07T08:46:21.578Z,18.93
2022-09-07T08:48:48.449Z,20.43
2022-09-07T08:51:15.188Z,21.00
2022-09-07T08:53:41.929Z,21.27
2022-09-07T08:56:10.142Z,21.43
2022-09-07T08:58:52.252Z,21.60
2022-09-07T09:01:35.501Z,21.79
2022-09-07T09:04:19.184Z,20.39
2022-09-07T09:06:46.396Z,18.89
2022-09-07T09:09:13.460Z,18.76
2022-09-07T09:11:40.217Z,20.33
2022-09-07T09:14:07.193Z,20.93
2022-09-07T09:16:34.058Z,21.19
2022-09-07T09:19:01.122Z,21.41
2022-09-07T09:21:27.981Z,21.62
2022-09-07T09:23:55.050Z,21.71
2022-09-07T09:26:21.989Z,21.74
2022-09-07T09:28:48.752Z,19.37
2022-09-07T09:31:15.550Z,18.70
2022-09-07T09:33:42.342Z,19.54
2022-09-07T09:36:09.108Z,20.72
2022-09-07T09:38:35.914Z,21.12
2022-09-07T09:41:03.225Z,21.37
2022-09-07T09:43:30.070Z,21.54
2022-09-07T09:46:12.706Z,21.63
2022-09-07T09:48:41.417Z,21.79
2022-09-07T09:53:55.005Z,18.98
2022-09-07T09:56:23.042Z,19.31
2022-09-07T09:59:05.709Z,20.65
2022-09-07T10:03:10.460Z,21.13
2022-09-07T10:04:24.708Z,21.36
2022-09-07T10:06:51.678Z,21.54
2022-09-07T10:09:18.694Z,21.68
2022-09-07T10:14:32.228Z,19.15
2022-09-07T10:16:59.058Z,18.56
2022-09-07T10:19:25.958Z,20.03
2022-09-07T10:21:52.716Z,20.84
2022-09-07T10:24:19.470Z,21.16
2022-09-07T10:26:48.488Z,21.41
2022-09-07T10:29:16.355Z,21.61
2022-09-07T10:31:43.532Z,21.72
2022-09-07T10:34:26.150Z,21.64
2022-09-07T10:36:53.245Z,19.47
2022-09-07T10:39:20.316Z,18.70
2022-09-07T10:41:47.776Z,19.92
2022-09-07T10:44:15.169Z,20.84
2022-09-07T10:46:57.692Z,21.20
2022-09-07T10:49:25.145Z,21.42
2022-09-07T10:51:51.902Z,21.64
2022-09-07T10:54:34.211Z,21.78
2022-09-07T10:57:01.873Z,21.25
2022-09-07T11:00:07.600Z,19.15
2022-09-07T11:02:17.958Z,18.66
2022-09-07T11:04:45.325Z,20.37
2022-09-07T11:07:15.512Z,21.01
2022-09-07T11:09:42.683Z,21.39
2022-09-07T11:12:09.465Z,21.54
2022-09-07T11:14:36.259Z,21.63
2022-09-07T11:17:03.432Z,21.75
2022-09-07T11:19:38.078Z,21.67
2022-09-07T11:22:05.081Z,19.38
2022-09-07T11:24:31.834Z,18.80
2022-09-07T11:26:58.662Z,20.30
2022-09-07T11:29:32.682Z,21.16
2022-09-07T11:31:59.749Z,21.47
2022-09-07T11:34:26.529Z,21.52
2022-09-07T11:36:53.273Z,21.69
2022-09-07T11:39:20.028Z,21.79
2022-09-07T11:41:46.964Z,20.50
2022-09-07T11:44:13.830Z,19.22
2022-09-07T11:46:40.679Z,19.01
2022-09-07T11:49:07.533Z,20.74
2022-09-07T11:51:34.298Z,21.26
2022-09-07T11:54:01.867Z,21.40
2022-09-07T11:56:28.751Z,21.56
2022-09-07T11:58:55.484Z,21.74
2022-09-07T12:01:22.866Z,21.83
2022-09-07T12:03:49.750Z,19.96
2022-09-07T12:06:16.624Z,18.97
2022-09-07T12:08:43.402Z,19.50
2022-09-07T12:11:10.236Z,20.94
2022-09-07T12:13:37.162Z,21.27
2022-09-07T12:16:03.957Z,21.51
2022-09-07T12:18:31.009Z,21.60
2022-09-07T12:20:57.985Z,21.81
2022-09-07T12:23:24.736Z,20.67
2022-09-07T12:25:52.787Z,19.13
2022-09-07T12:28:22.024Z,19.00
2022-09-07T12:30:49.849Z,20.68
2022-09-07T12:33:16.633Z,21.27
2022-09-07T12:35:43.893Z,21.41
2022-09-07T12:38:10.703Z,21.57
2022-09-07T12:40:37.525Z,21.66
2022-09-07T12:43:09.714Z,21.68
2022-09-07T12:45:36.808Z,19.42
2022-09-07T12:48:04.541Z,18.73
2022-09-07T12:50:31.517Z,20.06
2022-09-07T12:52:58.274Z,21.06
2022-09-07T12:55:28.289Z,21.30
2022-09-07T12:57:55.854Z,21.52
2022-09-07T13:00:25.673Z,21.62
2022-09-07T13:02:52.457Z,21.80
2022-09-07T13:05:19.193Z,21.60
2022-09-07T13:07:46.111Z,19.33
2022-09-07T13:10:12.867Z,18.77
2022-09-07T13:12:57.423Z,20.14
2022-09-07T13:15:24.633Z,21.15
2022-09-07T13:17:51.471Z,21.34
2022-09-07T13:20:18.248Z,21.47
2022-09-07T13:22:45.161Z,21.66
2022-09-07T13:25:12.753Z,21.86
2022-09-07T13:27:39.616Z,19.72
2022-09-07T13:30:07.285Z,18.81
2022-09-07T13:35:21.513Z,21.01
2022-09-07T13:37:48.313Z,21.35
2022-09-07T13:40:15.114Z,21.55
2022-09-07T13:42:41.936Z,21.63
2022-09-07T13:45:08.733Z,21.83
2022-09-07T13:47:35.472Z,21.09
2022-09-07T13:50:02.627Z,19.16
2022-09-07T13:52:29.426Z,18.81
2022-09-07T13:54:56.455Z,20.54
2022-09-07T13:57:23.358Z,21.22
2022-09-07T13:59:50.225Z,21.46
2022-09-07T14:02:17.027Z,21.61
2022-09-07T14:04:44.348Z,21.66
2022-09-07T14:07:11.100Z,21.87
2022-09-07T14:09:38.041Z,20.04
2022-09-07T14:12:04.845Z,18.91
2022-09-07T14:14:32.994Z,19.33
2022-09-07T14:17:00.270Z,20.96
2022-09-07T14:19:27.261Z,21.29
2022-09-07T14:21:54.138Z,21.48
2022-09-07T14:24:21.508Z,21.59
2022-09-07T14:26:48.729Z,21.76
2022-09-07T14:29:15.484Z,21.18
2022-09-07T14:31:42.247Z,19.13
2022-09-07T14:34:09.020Z,18.75
2022-09-07T14:36:45.708Z,20.40
2022-09-07T14:39:13.094Z,21.22
2022-09-07T14:41:41.340Z,21.45
2022-09-07T14:44:08.074Z,21.52
2022-09-07T14:46:34.899Z,21.75
2022-09-07T14:49:02.488Z,21.82
2022-09-07T14:51:35.715Z,19.86
2022-09-07T14:54:03.547Z,18.91
2022-09-07T14:56:30.303Z,19.57
2022-09-07T14:58:57.074Z,21.05
2022-09-07T15:01:39.648Z,21.40
2022-09-07T15:04:06.521Z,21.50
2022-09-07T15:09:20.446Z,21.85
2022-09-07T15:11:47.209Z,19.91
2022-09-07T15:14:13.962Z,18.89
2022-09-07T15:16:40.964Z,19.54
2022-09-07T15:19:08.912Z,21.02
2022-09-07T15:21:36.548Z,21.27
2022-09-07T15:24:03.956Z,21.48
2022-09-07T15:29:21.058Z,21.77
2022-09-07T15:31:59.337Z,21.44
2022-09-07T15:34:29.396Z,19.20
2022-09-07T15:36:59.812Z,18.76
2022-09-07T15:39:30.642Z,20.49
2022-09-07T15:41:58.207Z,21.14
2022-09-07T15:44:28.470Z,21.43
2022-09-07T15:49:46.020Z,21.76
2022-09-07T15:52:16.196Z,21.77
2022-09-07T15:54:43.480Z,19.52
2022-09-07T15:59:57.306Z,20.25
2022-09-07T16:05:11.159Z,21.38
2022-09-07T16:10:24.805Z,21.74
2022-09-07T16:15:38.334Z,18.90
2022-09-07T16:18:05.347Z,19.20
2022-09-07T16:20:32.474Z,20.66
2022-09-07T16:23:15.830Z,21.20
2022-09-07T16:25:43.685Z,21.45
2022-09-07T16:28:10.487Z,21.55
2022-09-07T16:30:37.240Z,21.69
2022-09-07T16:33:04.263Z,21.78
2022-09-07T16:35:31.966Z,19.51
2022-09-07T16:40:46.970Z,20.05
2022-09-07T16:43:13.761Z,21.00
2022-09-07T16:46:10.466Z,21.37
2022-09-07T16:48:27.365Z,21.50
2022-09-07T16:51:01.086Z,21.65
2022-09-07T16:53:28.663Z,21.70
2022-09-07T16:55:55.413Z,20.40
2022-09-07T16:58:37.885Z,19.07
2022-09-07T17:01:05.134Z,19.26
2022-09-07T17:03:32.016Z,20.86
2022-09-07T17:05:58.819Z,21.18
2022-09-07T17:08:25.745Z,21.41
2022-09-07T17:10:52.483Z,21.66
2022-09-07T17:13:19.858Z,21.76
2022-09-07T17:15:46.721Z,21.77
2022-09-07T17:18:16.506Z,19.95
2022-09-07T17:20:43.349Z,18.95
2022-09-07T17:23:10.308Z,19.69
2022-09-07T17:25:37.789Z,20.97
2022-09-07T17:28:04.900Z,21.29
2022-09-07T17:30:31.888Z,21.55
2022-09-07T17:32:58.834Z,21.70
2022-09-07T17:35:25.712Z,21.76
2022-09-07T17:37:52.557Z,21.14
2022-09-07T17:40:19.371Z,19.22
2022-09-07T17:45:33.146Z,20.49
2022-09-07T17:47:59.966Z,21.07
2022-09-07T17:50:26.945Z,21.32
2022-09-07T17:52:53.704Z,21.50
2022-09-07T17:55:20.453Z,21.64
2022-09-07T17:57:47.205Z,21.77
2022-09-07T18:00:13.982Z,19.83
2022-09-07T18:02:40.979Z,18.90
2022-09-07T18:05:08.122Z,19.37
2022-09-07T18:07:35.250Z,20.70
2022-09-07T18:10:02.648Z,21.13
2022-09-07T18:12:29.410Z,21.32
2022-09-07T18:14:56.527Z,21.53
2022-09-07T18:17:23.496Z,21.70
2022-09-07T18:19:50.677Z,21.83
2022-09-07T18:22:17.731Z,20.06
2022-09-07T18:24:44.508Z,18.97
2022-09-07T18:27:11.736Z,19.27
2022-09-07T18:29:38.737Z,20.68
2022-09-07T18:32:08.636Z,21.13
2022-09-07T18:34:35.584Z,21.34
2022-09-07T18:37:05.843Z,21.63
2022-09-07T18:39:33.412Z,21.66
2022-09-07T18:42:00.385Z,21.82
2022-09-07T18:47:21.177Z,18.92
2022-09-07T18:49:49.896Z,19.73
2022-09-07T18:55:06.147Z,21.21
2022-09-07T18:57:33.037Z,21.36
2022-09-07T18:59:59.838Z,21.58
2022-09-07T19:02:26.798Z,21.66
2022-09-07T19:07:40.557Z,19.58
2022-09-07T19:10:08.151Z,18.93
2022-09-07T19:12:34.893Z,19.88
2022-09-07T19:15:01.656Z,20.84
2022-09-07T19:17:31.597Z,21.05
2022-09-07T19:20:01.359Z,21.36
2022-09-07T19:22:28.140Z,21.52
2022-09-07T19:24:55.090Z,21.68
2022-09-07T19:27:22.017Z,21.52
2022-09-07T19:29:49.460Z,19.31
2022-09-07T19:32:17.195Z,18.72
2022-09-07T19:34:45.350Z,19.88
2022-09-07T19:37:12.417Z,20.80
2022-09-07T19:39:39.892Z,21.13
2022-09-07T19:42:06.816Z,21.30
2022-09-07T19:44:33.766Z,21.52
2022-09-07T19:47:01.209Z,21.62
2022-09-07T19:49:28.741Z,21.83
2022-09-07T19:51:55.812Z,21.44
2022-09-07T19:54:22.748Z,19.42
2022-09-07T19:56:49.574Z,18.96
2022-09-07T19:59:18.258Z,19.90
2022-09-07T20:01:47.121Z,20.84
2022-09-07T20:04:19.593Z,21.13
2022-09-07T20:06:49.119Z,21.33
2022-09-07T20:09:16.712Z,21.55
2022-09-07T20:11:46.886Z,21.61
2022-09-07T20:14:14.131Z,21.71
2022-09-07T20:16:41.854Z,21.48
2022-09-07T20:19:09.290Z,19.22
2022-09-07T20:21:36.776Z,18.78
2022-09-07T20:24:03.892Z,19.88
2022-09-07T20:26:32.131Z,20.84
2022-09-07T20:29:16.675Z,21.10
2022-09-07T20:31:46.606Z,21.40
2022-09-07T20:34:13.576Z,21.49
2022-09-07T20:36:40.453Z,21.59
2022-09-07T20:39:07.525Z,21.70
2022-09-07T20:41:34.506Z,21.71
2022-09-07T20:44:01.371Z,19.25
2022-09-07T20:46:28.877Z,18.86
2022-09-07T20:48:55.983Z,19.70
2022-09-07T20:51:23.048Z,20.76
2022-09-07T20:53:49.869Z,21.05
2022-09-07T20:56:16.702Z,21.29
2022-09-07T20:58:43.731Z,21.48
2022-09-07T21:01:10.845Z,21.57
2022-09-07T21:03:37.704Z,21.72
2022-09-07T21:06:04.543Z,21.68
2022-09-07T21:08:31.588Z,19.19
2022-09-07T21:10:58.364Z,18.74
2022-09-07T21:13:25.286Z,19.70
2022-09-07T21:15:52.468Z,20.65
2022-09-07T21:18:19.432Z,21.02
2022-09-07T21:21:04.281Z,21.22
2022-09-07T21:23:33.492Z,21.40
2022-09-07T21:26:00.455Z,21.55
2022-09-07T21:28:27.405Z,21.69
2022-09-07T21:30:54.368Z,21.74
2022-09-07T21:33:21.351Z,20.91
2022-09-07T21:35:48.223Z,19.06
2022-09-07T21:38:15.024Z,18.67
2022-09-07T21:40:41.845Z,20.16
2022-09-07T21:43:08.842Z,20.84
2022-09-07T21:45:35.746Z,21.14
2022-09-07T21:48:05.455Z,21.36
2022-09-07T21:50:32.318Z,21.52
2022-09-07T21:52:59.275Z,21.69
2022-09-07T21:55:26.225Z,21.71
2022-09-07T21:57:53.113Z,21.83
2022-09-07T22:00:20.465Z,21.01
2022-09-07T22:02:47.288Z,19.08
2022-09-07T22:05:14.209Z,18.67
2022-09-07T22:07:41.701Z,19.95
2022-09-07T22:10:08.915Z,20.77
2022-09-07T22:12:35.921Z,21.13
2022-09-07T22:15:03.164Z,21.31
2022-09-07T22:17:30.114Z,21.47
2022-09-07T22:19:56.930Z,21.62
2022-09-07T22:22:23.896Z,21.79
2022-09-07T22:24:50.633Z,21.90
2022-09-07T22:27:17.452Z,19.78
2022-09-07T22:29:44.816Z,18.79
2022-09-07T22:32:11.562Z,19.12
2022-09-07T22:34:38.315Z,20.47
2022-09-07T22:37:05.292Z,20.92
2022-09-07T22:39:32.355Z,21.15
2022-09-07T22:41:59.174Z,21.36
2022-09-07T22:44:27.538Z,21.55
2022-09-07T22:46:57.075Z,21.61
2022-09-07T22:49:23.912Z,21.75
2022-09-07T22:51:51.002Z,21.83
2022-09-07T22:54:17.762Z,20.39
2022-09-07T22:56:44.571Z,18.96
2022-09-07T22:59:11.644Z,18.73
2022-09-07T23:01:38.596Z,20.12
2022-09-07T23:04:05.537Z,20.81
2022-09-07T23:06:32.654Z,21.11
2022-09-07T23:08:59.432Z,21.31
2022-09-07T23:11:26.661Z,21.45
2022-09-07T23:13:53.631Z,21.60
2022-09-07T23:16:21.143Z,21.72
2022-09-07T23:18:48.402Z,21.84
2022-09-07T23:21:15.397Z,20.68
2022-09-07T23:23:42.467Z,18.89
2022-09-07T23:26:09.593Z,18.61
2022-09-07T23:28:36.761Z,19.99
2022-09-07T23:31:03.677Z,20.78
2022-09-07T23:33:30.663Z,21.01
2022-09-07T23:35:57.529Z,21.26
2022-09-07T23:38:25.402Z,21.41
2022-09-07T23:40:52.512Z,21.64
2022-09-07T23:43:19.575Z,21.74
2022-09-07T23:45:46.386Z,21.80
2022-09-07T23:48:15.822Z,19.78
2022-09-07T23:50:42.588Z,18.75
2022-09-07T23:53:09.336Z,19.09
2022-09-07T23:55:36.132Z,20.37
2022-09-07T23:58:02.914Z,20.92
